createdAt,value
2022-10-20T00:01:25.306Z,5.80
2022-10-20T00:03:54.594Z,5.80
2022-10-20T00:06:28.670Z,5.90
2022-10-20T00:08:59.283Z,5.90
2022-10-20T00:11:28.916Z,5.90
2022-10-20T00:13:58.780Z,5.90
2022-10-20T00:16:29.573Z,5.90
2022-10-20T00:18:58.950Z,5.90
2022-10-20T00:21:29.396Z,6.00
2022-10-20T00:24:02.915Z,6.00
2022-10-20T00:26:33.257Z,5.90
2022-10-20T00:29:04.039Z,6.00
2022-10-20T00:31:32.717Z,6.00
2022-10-20T00:34:01.234Z,6.00
2022-10-20T00:36:29.794Z,6.00
2022-10-20T00:39:03.850Z,6.00
2022-10-20T00:41:33.670Z,5.90
2022-10-20T00:44:05.175Z,6.00
2022-10-20T00:46:36.780Z,6.00
2022-10-20T00:49:13.980Z,6.00
2022-10-20T00:51:43.805Z,6.00
2022-10-20T00:54:15.749Z,6.00
2022-10-20T00:56:47.097Z,6.00
2022-10-20T00:59:18.162Z,6.00
2022-10-20T01:01:47.214Z,6.00
2022-10-20T01:04:17.134Z,6.00
2022-10-20T01:06:45.723Z,5.90
2022-10-20T01:09:14.379Z,5.90
2022-10-20T01:12:13.188Z,6.00
2022-10-20T01:15:08.656Z,6.00
2022-10-20T01:17:59.463Z,5.90
2022-10-20T01:20:40.150Z,6.00
2022-10-20T01:23:20.538Z,5.90
2022-10-20T01:25:57.825Z,5.90
2022-10-20T01:28:44.017Z,5.90
2022-10-20T01:31:21.110Z,5.80
2022-10-20T01:33:52.685Z,5.80
2022-10-20T01:36:30.013Z,5.90
2022-10-20T01:39:04.405Z,6.00
2022-10-20T01:41:41.787Z,6.00
2022-10-20T01:44:13.299Z,5.90
2022-10-20T01:46:44.036Z,5.80
2022-10-20T01:49:15.123Z,5.90
2022-10-20T01:51:43.649Z,5.90
2022-10-20T01:54:26.579Z,6.00
2022-10-20T01:57:15.991Z,5.90
2022-10-20T01:59:47.515Z,5.90
2022-10-20T02:02:53.692Z,5.90
2022-10-20T02:05:33.835Z,5.80
2022-10-20T02:08:20.414Z,5.80
2022-10-20T02:10:54.726Z,5.70
2022-10-20T02:13:23.321Z,5.80
2022-10-20T02:15:57.575Z,5.70
2022-10-20T02:18:29.504Z,5.70
2022-10-20T02:21:01.402Z,5.80
2022-10-20T02:23:35.162Z,5.80
2022-10-20T02:26:04.593Z,5.80
2022-10-20T02:28:35.680Z,5.80
2022-10-20T02:31:05.348Z,5.80
2022-10-20T02:33:35.688Z,5.70
2022-10-20T02:36:06.629Z,5.80
2022-10-20T02:38:35.088Z,5.70
2022-10-20T02:41:03.553Z,5.70
2022-10-20T02:43:32.030Z,5.70
2022-10-20T02:46:00.561Z,5.70
2022-10-20T02:48:29.014Z,5.70
2022-10-20T02:50:58.158Z,5.70
2022-10-20T02:53:26.760Z,5.70
2022-10-20T02:55:55.216Z,5.70
2022-10-20T02:58:23.741Z,5.80
2022-10-20T03:00:52.614Z,5.80
2022-10-20T03:03:21.149Z,5.80
2022-10-20T03:05:49.691Z,5.80
2022-10-20T03:08:18.514Z,5.80
2022-10-20T03:10:47.047Z,5.80
2022-10-20T03:13:15.575Z,5.80
2022-10-20T03:15:44.126Z,5.70
2022-10-20T03:18:12.663Z,5.70
2022-10-20T03:20:41.162Z,5.70
2022-10-20T03:23:09.737Z,5.70
2022-10-20T03:25:38.325Z,5.70
2022-10-20T03:28:06.826Z,5.70
2022-10-20T03:30:35.458Z,5.60
2022-10-20T03:33:04.564Z,5.70
2022-10-20T03:35:33.128Z,5.70
2022-10-20T03:38:01.612Z,5.70
2022-10-20T03:40:30.046Z,5.60
2022-10-20T03:42:58.628Z,5.60
2022-10-20T03:45:27.133Z,5.60
2022-10-20T03:47:55.618Z,5.70
2022-10-20T03:50:24.178Z,5.70
2022-10-20T03:52:52.843Z,5.70
2022-10-20T03:55:21.768Z,5.80
2022-10-20T03:57:50.245Z,5.80
2022-10-20T04:00:18.879Z,5.80
2022-10-20T04:02:47.814Z,5.80
2022-10-20T04:05:19.972Z,5.90
2022-10-20T04:07:49.033Z,5.80
2022-10-20T04:10:17.998Z,5.80
2022-10-20T04:12:46.621Z,5.80
2022-10-20T04:15:15.383Z,5.80
2022-10-20T04:17:43.855Z,5.80
2022-10-20T04:20:12.963Z,5.80
2022-10-20T04:22:41.481Z,5.80
2022-10-20T04:25:12.029Z,5.80
2022-10-20T04:27:41.237Z,5.80
2022-10-20T04:30:10.498Z,5.70
2022-10-20T04:32:38.967Z,5.70
2022-10-20T04:35:07.917Z,5.70
2022-10-20T04:37:36.463Z,5.80
2022-10-20T04:40:05.345Z,5.70
2022-10-20T04:42:33.950Z,5.70
2022-10-20T04:45:02.389Z,5.70
2022-10-20T04:47:34.808Z,5.70
2022-10-20T04:50:04.047Z,5.70
2022-10-20T04:52:32.504Z,5.80
2022-10-20T04:55:00.950Z,5.80
2022-10-20T04:57:29.623Z,5.80
2022-10-20T04:59:58.313Z,5.90
2022-10-20T05:02:26.797Z,5.90
2022-10-20T05:04:55.287Z,5.90
2022-10-20T05:07:23.792Z,5.90
2022-10-20T05:09:52.344Z,5.80
2022-10-20T05:12:20.849Z,5.80
2022-10-20T05:14:49.377Z,5.80
2022-10-20T05:17:17.890Z,5.80
2022-10-20T05:19:46.387Z,5.90
2022-10-20T05:22:14.945Z,5.80
2022-10-20T05:24:43.609Z,5.80
2022-10-20T05:27:12.242Z,5.80
2022-10-20T05:29:40.764Z,5.80
2022-10-20T05:32:09.242Z,5.80
2022-10-20T05:34:38.949Z,5.90
2022-10-20T05:37:07.563Z,5.90
2022-10-20T05:39:36.166Z,5.90
2022-10-20T05:42:04.753Z,5.90
2022-10-20T05:44:33.631Z,5.90
2022-10-20T05:47:02.177Z,6.00
2022-10-20T05:49:30.836Z,6.00
2022-10-20T05:51:59.380Z,6.00
2022-10-20T05:54:28.053Z,6.10
2022-10-20T05:56:56.539Z,6.20
2022-10-20T05:59:25.166Z,6.10
2022-10-20T06:01:53.613Z,6.20
2022-10-20T06:04:24.092Z,6.20
2022-10-20T06:06:53.644Z,6.10
2022-10-20T06:09:24.300Z,6.10
2022-10-20T06:11:53.697Z,6.20
2022-10-20T06:14:23.867Z,6.20
2022-10-20T06:16:54.341Z,6.20
2022-10-20T06:19:23.828Z,6.30
2022-10-20T06:21:52.731Z,6.30
2022-10-20T06:24:21.538Z,6.50
2022-10-20T06:26:50.174Z,6.40
2022-10-20T06:29:20.060Z,6.50
2022-10-20T06:31:50.800Z,6.50
2022-10-20T06:34:22.292Z,6.50
2022-10-20T06:36:52.494Z,6.60
2022-10-20T06:39:25.303Z,6.60
2022-10-20T06:41:55.279Z,6.60
2022-10-20T06:44:24.990Z,6.60
2022-10-20T06:46:54.410Z,6.70
2022-10-20T06:49:23.714Z,6.80
2022-10-20T06:51:52.294Z,6.80
2022-10-20T06:54:20.848Z,6.80
2022-10-20T06:56:49.455Z,6.90
2022-10-20T06:59:18.084Z,7.00
2022-10-20T07:01:46.630Z,7.00
2022-10-20T07:04:16.863Z,7.00
2022-10-20T07:06:47.015Z,7.10
2022-10-20T07:09:18.908Z,7.20
2022-10-20T07:11:49.374Z,7.30
2022-10-20T07:14:18.167Z,7.30
2022-10-20T07:16:46.716Z,7.40
2022-10-20T07:19:15.307Z,7.60
2022-10-20T07:21:54.355Z,7.70
2022-10-20T07:24:24.254Z,7.80
2022-10-20T07:26:52.751Z,7.80
2022-10-20T07:29:21.654Z,8.00
2022-10-20T07:31:50.370Z,8.10
2022-10-20T07:34:27.159Z,8.20
2022-10-20T07:36:52.584Z,8.40
2022-10-20T07:39:21.056Z,8.60
2022-10-20T07:41:50.806Z,8.80
2022-10-20T07:44:20.001Z,8.90
2022-10-20T07:46:48.679Z,8.90
2022-10-20T07:51:47.482Z,9.10
2022-10-20T07:54:16.002Z,9.10
2022-10-20T07:56:46.028Z,9.20
2022-10-20T07:59:15.181Z,9.40
2022-10-20T08:01:44.029Z,9.50
2022-10-20T08:04:13.124Z,9.60
2022-10-20T08:06:41.758Z,9.80
2022-10-20T08:09:10.304Z,9.90
2022-10-20T08:11:38.946Z,10.10
2022-10-20T08:14:07.681Z,10.20
2022-10-20T08:16:40.633Z,10.40
2022-10-20T08:19:15.083Z,10.80
2022-10-20T08:21:43.670Z,11.00
2022-10-20T08:24:12.326Z,11.40
2022-10-20T08:26:40.951Z,11.80
2022-10-20T08:29:10.544Z,12.10
2022-10-20T08:31:40.905Z,12.20
2022-10-20T08:34:09.905Z,12.60
2022-10-20T08:36:38.495Z,13.00
2022-10-20T08:39:06.949Z,14.00
2022-10-20T08:42:09.883Z,14.30
2022-10-20T08:44:15.091Z,14.90
2022-10-20T08:46:44.061Z,15.20
2022-10-20T08:49:28.127Z,15.40
2022-10-20T08:51:56.736Z,16.30
2022-10-20T08:54:25.652Z,16.70
2022-10-20T08:56:54.156Z,16.90
2022-10-20T08:59:25.761Z,17.10
2022-10-20T09:01:55.016Z,17.50
2022-10-20T09:04:29.516Z,17.80
2022-10-20T09:07:01.360Z,18.00
2022-10-20T09:09:32.918Z,17.90
2022-10-20T09:12:07.299Z,18.10
2022-10-20T09:14:37.766Z,18.20
2022-10-20T09:17:11.344Z,17.80
2022-10-20T09:19:40.288Z,17.30
2022-10-20T09:22:10.503Z,17.50
2022-10-20T09:24:40.481Z,17.40
2022-10-20T09:27:23.658Z,17.60
2022-10-20T09:29:52.306Z,17.90
2022-10-20T09:34:57.336Z,16.70
2022-10-20T09:37:25.963Z,16.40
2022-10-20T09:39:57.288Z,16.60
2022-10-20T09:42:34.735Z,16.50
2022-10-20T09:45:09.697Z,16.90
2022-10-20T09:47:41.262Z,17.00
2022-10-20T09:50:11.735Z,17.10
2022-10-20T09:52:41.925Z,17.20
2022-10-20T09:55:22.523Z,17.30
2022-10-20T09:57:51.138Z,17.50
2022-10-20T10:00:37.637Z,17.50
2022-10-20T10:03:10.373Z,17.40
2022-10-20T10:05:38.879Z,17.60
2022-10-20T10:08:10.449Z,17.90
2022-10-20T10:10:39.093Z,18.00
2022-10-20T10:13:10.660Z,18.40
2022-10-20T10:15:40.021Z,18.90
2022-10-20T10:18:17.712Z,19.10
2022-10-20T10:20:46.340Z,19.00
2022-10-20T10:23:23.934Z,18.80
2022-10-20T10:25:53.621Z,18.80
2022-10-20T10:28:33.768Z,18.70
2022-10-20T10:31:11.317Z,19.00
2022-10-20T10:33:39.834Z,19.10
2022-10-20T10:36:17.301Z,18.60
2022-10-20T10:38:45.753Z,18.20
2022-10-20T10:41:43.011Z,18.30
2022-10-20T10:44:32.573Z,18.10
2022-10-20T10:47:07.008Z,18.00
2022-10-20T10:49:44.320Z,18.00
2022-10-20T10:52:27.338Z,17.70
2022-10-20T10:55:01.892Z,17.60
2022-10-20T10:57:39.404Z,17.60
2022-10-20T11:00:14.104Z,17.60
2022-10-20T11:03:03.508Z,17.50
2022-10-20T11:05:43.662Z,17.60
2022-10-20T11:08:20.797Z,17.70
2022-10-20T11:10:52.512Z,17.90
2022-10-20T11:13:27.123Z,17.70
2022-10-20T11:16:13.820Z,17.50
2022-10-20T11:19:08.164Z,17.40
2022-10-20T11:21:54.570Z,17.50
2022-10-20T11:24:57.769Z,17.20
2022-10-20T11:27:29.488Z,17.20
2022-10-20T11:30:02.722Z,17.30
2022-10-20T11:32:40.286Z,17.30
2022-10-20T11:35:37.460Z,17.20
2022-10-20T11:38:31.413Z,17.00
2022-10-20T11:41:05.843Z,16.80
2022-10-20T11:43:39.806Z,16.90
2022-10-20T11:46:13.956Z,16.80
2022-10-20T11:48:47.981Z,17.00
2022-10-20T11:51:34.349Z,16.90
2022-10-20T11:54:23.645Z,16.80
2022-10-20T11:57:01.431Z,16.70
2022-10-20T11:59:51.101Z,16.70
2022-10-20T12:02:56.153Z,16.30
2022-10-20T12:05:36.613Z,16.20
2022-10-20T12:08:32.405Z,16.30
2022-10-20T12:11:20.400Z,16.50
2022-10-20T12:14:19.372Z,16.50
2022-10-20T12:16:58.531Z,16.50
2022-10-20T12:19:32.820Z,16.50
2022-10-20T12:22:15.883Z,16.60
2022-10-20T12:24:56.432Z,16.60
2022-10-20T12:27:29.923Z,16.70
2022-10-20T12:30:07.105Z,16.70
2022-10-20T12:32:54.384Z,16.80
2022-10-20T12:35:28.963Z,16.70
2022-10-20T12:38:01.767Z,16.70
2022-10-20T12:40:47.801Z,16.70
2022-10-20T12:43:31.593Z,16.60
2022-10-20T12:46:06.130Z,16.60
2022-10-20T12:48:37.313Z,16.50
2022-10-20T12:51:09.235Z,16.50
2022-10-20T12:53:38.794Z,16.50
2022-10-20T12:56:09.891Z,16.50
2022-10-20T12:58:41.502Z,16.50
2022-10-20T13:01:12.132Z,16.50
2022-10-20T13:03:52.631Z,16.60
2022-10-20T13:06:27.327Z,16.60
2022-10-20T13:09:09.685Z,16.30
2022-10-20T13:11:41.218Z,16.20
2022-10-20T13:14:31.265Z,16.20
2022-10-20T13:17:08.885Z,16.10
2022-10-20T13:19:46.477Z,16.00
2022-10-20T13:22:41.524Z,15.80
2022-10-20T13:25:42.939Z,15.60
2022-10-20T13:28:18.504Z,15.60
2022-10-20T13:30:59.143Z,15.50
2022-10-20T13:34:02.745Z,15.20
2022-10-20T13:36:37.205Z,15.10
2022-10-20T13:39:20.828Z,14.90
2022-10-20T13:42:10.473Z,14.70
2022-10-20T13:45:04.517Z,14.70
2022-10-20T13:47:53.993Z,14.70
2022-10-20T13:50:34.334Z,14.70
2022-10-20T13:53:14.411Z,14.70
2022-10-20T13:55:54.862Z,14.60
2022-10-20T13:58:24.970Z,14.60
2022-10-20T14:01:16.673Z,14.60
2022-10-20T14:03:47.581Z,14.60
2022-10-20T14:06:37.934Z,14.70
2022-10-20T14:09:18.385Z,14.80
2022-10-20T14:11:50.265Z,14.80
2022-10-20T14:14:21.778Z,14.80
2022-10-20T14:16:53.360Z,14.70
2022-10-20T14:19:24.861Z,14.80
2022-10-20T14:21:54.977Z,14.70
2022-10-20T14:24:34.947Z,14.70
2022-10-20T14:27:05.735Z,14.70
2022-10-20T14:29:37.054Z,14.70
2022-10-20T14:32:07.055Z,14.70
2022-10-20T14:34:37.576Z,14.90
2022-10-20T14:37:08.562Z,14.90
2022-10-20T14:39:39.993Z,14.90
2022-10-20T14:42:29.551Z,14.90
2022-10-20T14:44:59.774Z,14.90
2022-10-20T14:47:31.401Z,14.90
2022-10-20T14:50:00.259Z,14.90
2022-10-20T14:52:37.038Z,15.00
2022-10-20T14:55:08.831Z,14.80
2022-10-20T14:57:40.433Z,16.10
2022-10-20T15:00:30.412Z,17.40
2022-10-20T15:03:03.070Z,17.00
2022-10-20T15:05:37.808Z,16.00
2022-10-20T15:08:24.403Z,15.60
2022-10-20T15:10:53.610Z,15.50
2022-10-20T15:13:28.375Z,15.30
2022-10-20T15:16:01.903Z,15.20
2022-10-20T15:18:30.892Z,15.80
2022-10-20T15:20:59.555Z,15.80
2022-10-20T15:23:29.371Z,15.50
2022-10-20T15:26:07.056Z,15.40
2022-10-20T15:28:41.664Z,15.20
2022-10-20T15:31:25.097Z,15.30
2022-10-20T15:33:55.014Z,15.20
2022-10-20T15:36:30.783Z,15.10
2022-10-20T15:38:59.885Z,15.00
2022-10-20T15:41:30.539Z,15.10
2022-10-20T15:44:04.984Z,14.80
2022-10-20T15:46:33.470Z,14.80
2022-10-20T15:49:01.993Z,14.80
2022-10-20T15:51:35.681Z,14.90
2022-10-20T15:54:04.482Z,14.80
2022-10-20T15:56:34.040Z,14.70
2022-10-20T15:59:03.047Z,14.70
2022-10-20T16:01:31.886Z,14.60
2022-10-20T16:04:02.169Z,14.60
2022-10-20T16:06:30.618Z,14.50
2022-10-20T16:08:59.266Z,14.50
2022-10-20T16:11:27.998Z,14.50
2022-10-20T16:13:56.703Z,14.60
2022-10-20T16:16:25.318Z,14.50
2022-10-20T16:18:53.903Z,14.60
2022-10-20T16:21:22.365Z,14.60
2022-10-20T16:23:50.865Z,14.70
2022-10-20T16:26:21.081Z,14.70
2022-10-20T16:28:49.586Z,14.70
2022-10-20T16:31:20.093Z,14.60
2022-10-20T16:33:48.736Z,14.60
2022-10-20T16:36:18.874Z,14.60
2022-10-20T16:38:47.439Z,14.60
2022-10-20T16:41:16.806Z,14.60
2022-10-20T16:43:46.629Z,14.60
2022-10-20T16:46:15.783Z,14.60
2022-10-20T16:48:47.587Z,14.60
2022-10-20T16:51:15.328Z,14.60
2022-10-20T16:53:44.069Z,14.60
2022-10-20T16:56:16.696Z,14.60
2022-10-20T16:58:43.912Z,14.60
2022-10-20T17:01:14.112Z,14.60
2022-10-20T17:03:45.117Z,14.60
2022-10-20T17:06:15.474Z,14.50
2022-10-20T17:08:44.138Z,14.50
2022-10-20T17:11:15.711Z,14.60
2022-10-20T17:13:44.173Z,14.60
2022-10-20T17:16:15.125Z,14.60
2022-10-20T17:18:43.926Z,14.60
2022-10-20T17:21:12.921Z,14.50
2022-10-20T17:23:44.317Z,14.50
2022-10-20T17:26:18.483Z,14.50
2022-10-20T17:28:47.437Z,14.60
2022-10-20T17:31:18.615Z,14.50
2022-10-20T17:33:47.559Z,14.60
2022-10-20T17:36:17.028Z,14.60
2022-10-20T17:38:45.694Z,14.70
2022-10-20T17:41:16.002Z,14.70
2022-10-20T17:43:44.557Z,14.70
2022-10-20T17:46:15.586Z,14.80
2022-10-20T17:48:44.430Z,14.80
2022-10-20T17:51:19.507Z,14.70
2022-10-20T17:53:50.393Z,14.70
2022-10-20T17:56:21.333Z,14.80
2022-10-20T17:58:52.294Z,14.80
2022-10-20T18:01:23.970Z,14.70
2022-10-20T18:03:57.810Z,14.80
2022-10-20T18:06:33.598Z,14.90
2022-10-20T18:09:00.614Z,15.00
2022-10-20T18:11:32.006Z,15.00
2022-10-20T18:14:01.437Z,14.90
2022-10-20T18:16:32.221Z,14.90
2022-10-20T18:19:01.607Z,14.90
2022-10-20T18:21:31.824Z,14.80
2022-10-20T18:24:02.676Z,15.00
2022-10-20T18:26:33.499Z,14.80
2022-10-20T18:29:03.143Z,14.90
2022-10-20T18:31:33.625Z,14.90
2022-10-20T18:34:06.878Z,15.00
2022-10-20T18:36:40.450Z,15.00
2022-10-20T18:39:08.913Z,15.00
2022-10-20T18:41:42.855Z,15.00
2022-10-20T18:44:16.333Z,15.00
2022-10-20T18:46:46.420Z,15.10
2022-10-20T18:49:18.757Z,15.10
2022-10-20T18:51:48.408Z,15.00
2022-10-20T18:54:17.978Z,15.00
2022-10-20T18:56:46.649Z,15.10
2022-10-20T18:59:17.111Z,15.00
2022-10-20T19:01:48.149Z,15.00
2022-10-20T19:04:16.740Z,15.10
2022-10-20T19:06:47.706Z,15.00
2022-10-20T19:09:19.046Z,15.00
2022-10-20T19:14:18.677Z,15.00
2022-10-20T19:16:49.642Z,15.00
2022-10-20T19:19:20.501Z,15.00
2022-10-20T19:21:49.793Z,15.00
2022-10-20T19:24:25.580Z,15.00
2022-10-20T19:29:29.443Z,15.10
2022-10-20T19:32:00.345Z,15.10
2022-10-20T19:34:34.904Z,15.00
2022-10-20T19:37:04.181Z,15.00
2022-10-20T19:39:37.904Z,15.00
2022-10-20T19:42:07.335Z,15.00
2022-10-20T19:44:36.261Z,14.90
2022-10-20T19:47:05.642Z,14.80
2022-10-20T19:49:34.597Z,14.70
2022-10-20T19:52:03.492Z,14.90
2022-10-20T19:54:33.635Z,14.80
2022-10-20T19:57:02.105Z,14.80
2022-10-20T19:59:30.749Z,14.90
2022-10-20T20:01:59.424Z,14.90
2022-10-20T20:04:27.981Z,14.90
2022-10-20T20:07:01.718Z,14.90
2022-10-20T20:09:29.901Z,14.80
2022-10-20T20:11:58.536Z,14.80
2022-10-20T20:14:27.857Z,14.70
2022-10-20T20:16:56.363Z,14.60
2022-10-20T20:19:25.183Z,14.50
2022-10-20T20:21:53.661Z,14.50
2022-10-20T20:24:22.312Z,14.50
2022-10-20T20:26:50.881Z,14.40
2022-10-20T20:29:19.357Z,14.30
2022-10-20T20:31:48.103Z,14.30
2022-10-20T20:34:18.070Z,14.30
2022-10-20T20:36:46.710Z,14.30
2022-10-20T20:39:15.130Z,14.40
2022-10-20T20:41:43.849Z,14.40
2022-10-20T20:44:12.344Z,14.40
2022-10-20T20:46:42.561Z,14.60
2022-10-20T20:49:11.111Z,14.70
2022-10-20T20:51:39.526Z,14.60
2022-10-20T20:54:08.844Z,14.90
2022-10-20T20:56:37.675Z,14.80
2022-10-20T20:59:06.258Z,15.10
2022-10-20T21:01:34.724Z,15.00
2022-10-20T21:04:05.364Z,15.00
2022-10-20T21:06:56.471Z,15.00
2022-10-20T21:09:04.470Z,14.90
2022-10-20T21:11:33.161Z,14.90
2022-10-20T21:14:01.951Z,15.20
2022-10-20T21:16:33.385Z,15.20
2022-10-20T21:19:04.859Z,15.20
2022-10-20T21:21:36.031Z,15.20
2022-10-20T21:24:06.176Z,15.30
2022-10-20T21:26:34.927Z,15.20
2022-10-20T21:29:04.176Z,15.10
2022-10-20T21:31:33.491Z,15.20
2022-10-20T21:34:04.716Z,15.30
2022-10-20T21:36:35.390Z,15.50
2022-10-20T21:39:06.918Z,15.50
2022-10-20T21:41:36.934Z,15.40
2022-10-20T21:44:07.615Z,15.50
2022-10-20T21:46:42.951Z,15.50
2022-10-20T21:49:14.157Z,15.50
2022-10-20T21:51:45.557Z,15.50
2022-10-20T21:54:17.472Z,15.50
2022-10-20T21:56:46.976Z,15.50
2022-10-20T21:59:21.311Z,15.60
2022-10-20T22:01:50.877Z,15.50
2022-10-20T22:04:20.868Z,15.70
2022-10-20T22:06:49.464Z,15.70
2022-10-20T22:09:18.667Z,15.80
2022-10-20T22:11:52.747Z,15.70
2022-10-20T22:14:21.268Z,15.70
2022-10-20T22:16:49.816Z,15.80
2022-10-20T22:19:21.088Z,15.90
2022-10-20T22:21:51.192Z,15.80
2022-10-20T22:24:21.201Z,15.90
2022-10-20T22:26:51.565Z,16.00
2022-10-20T22:29:21.828Z,16.00
2022-10-20T22:31:50.536Z,16.00
2022-10-20T22:34:19.245Z,16.00
2022-10-20T22:36:47.803Z,15.90
2022-10-20T22:39:16.261Z,16.00
2022-10-20T22:41:44.814Z,16.00
2022-10-20T22:44:13.331Z,16.10
2022-10-20T22:46:41.859Z,16.10
2022-10-20T22:49:12.077Z,16.20
2022-10-20T22:51:40.699Z,16.30
2022-10-20T22:54:09.265Z,16.40
2022-10-20T22:56:37.859Z,16.50
2022-10-20T22:59:06.332Z,16.60
2022-10-20T23:01:34.853Z,16.60
2022-10-20T23:04:03.320Z,16.60
2022-10-20T23:06:31.817Z,16.60
2022-10-20T23:09:00.348Z,16.70
2022-10-20T23:11:29.802Z,16.70
2022-10-20T23:13:58.362Z,16.70
2022-10-20T23:16:26.938Z,16.60
2022-10-20T23:18:55.552Z,16.60
2022-10-20T23:21:24.087Z,16.60
2022-10-20T23:23:52.748Z,16.60
2022-10-20T23:26:21.366Z,16.50
2022-10-20T23:28:50.059Z,16.40
2022-10-20T23:31:21.414Z,16.40
2022-10-20T23:33:52.871Z,16.40
2022-10-20T23:36:21.617Z,16.40
2022-10-20T23:38:50.349Z,16.40
2022-10-20T23:41:19.014Z,16.40
2022-10-20T23:43:47.534Z,16.40
2022-10-20T23:46:16.066Z,16.40
2022-10-20T23:48:44.885Z,16.40
2022-10-20T23:51:13.323Z,16.50
2022-10-20T23:53:41.779Z,16.40
2022-10-20T23:56:10.386Z,16.40
2022-10-20T23:58:38.967Z,16.50
